首页
METAR-TAF:

METAR-TAF

机场 :

迪戈加西亚岛, 英屬印度洋領地

纬度: 07-18S, 经度: 072-24E, 海拔: 1米

当前天气观测

该预报发布于53分钟前的09:55 UTC
风速10节,风向,有时为19节阵风
温度 32°C
湿度 75%
气压 1009 hPa
能见度10公里或以上
少量云层高于2300英尺
少量云层高于25000英尺

METAR: FJDG 210955Z 17010G19KT 9999 FEW023 FEW250 32/27 A2981 RMK SLP091 T03170267

时间: 16:48 (10:48 UTC)

预报

该预报发布于1小时和48分钟前的09:00 UTC
预报有效从21日的 09点(UTC)到 22日的 15点(UTC)
风速15节,风向,有时为20节阵风
能见度10公里或以上
少量云层高于2500英尺

TAF: FJDG 210900Z 2109/2215 17015G20KT 9999 FEW025 QNH2980INS TX33/2109Z TN27/2114Z

超过4000个机场的气象观测和天气预报(METAR&TAF报告)。

可查询的气象台以黄色和红色小点在地图上表示。

将鼠标移到小点上方,可查看气象台名称。

然后点击查看天气观测和预报。

如需切换地图:点击带黑十字的绿色按钮放大地图;点击带横线的绿色按钮缩小地图;或者点击绿色箭头查看邻近地区的地图。


METAR-TAF: